createdAt,value
2023-05-03T00:00:44.529Z,8.15
2023-05-03T00:03:13.725Z,8.23
2023-05-03T00:05:44.426Z,7.35
2023-05-03T00:08:18.178Z,7.90
2023-05-03T00:10:47.153Z,8.20
2023-05-03T00:13:15.599Z,7.55
2023-05-03T00:15:50.766Z,8.23
2023-05-03T00:18:19.905Z,7.93
2023-05-03T00:20:50.320Z,7.80
2023-05-03T00:23:22.524Z,7.05
2023-05-03T00:25:53.878Z,7.75
2023-05-03T00:28:28.271Z,8.65
2023-05-03T00:30:57.310Z,7.72
2023-05-03T00:33:31.492Z,7.20
2023-05-03T00:36:03.024Z,8.45
2023-05-03T00:38:40.793Z,8.75
2023-05-03T00:41:14.653Z,10.52
2023-05-03T00:43:44.918Z,11.63
2023-05-03T00:46:18.086Z,9.68
2023-05-03T00:48:49.694Z,8.90
2023-05-03T00:51:20.172Z,7.97
2023-05-03T00:53:52.423Z,7.53
2023-05-03T00:56:22.922Z,8.18
2023-05-03T00:58:55.689Z,7.93
2023-05-03T01:01:26.466Z,6.93
2023-05-03T01:03:55.656Z,6.80
2023-05-03T01:06:34.519Z,15.85
2023-05-03T01:09:12.669Z,14.20
2023-05-03T01:11:48.793Z,10.80
2023-05-03T01:14:33.825Z,8.75
2023-05-03T01:17:11.191Z,7.45
2023-05-03T01:19:45.686Z,6.88
2023-05-03T01:22:22.864Z,6.50
2023-05-03T01:25:01.571Z,6.65
2023-05-03T01:27:31.017Z,6.43
2023-05-03T01:29:59.641Z,7.00
2023-05-03T01:32:38.034Z,6.50
2023-05-03T01:35:13.570Z,6.93
2023-05-03T01:37:43.419Z,7.03
2023-05-03T01:40:19.497Z,8.20
2023-05-03T01:42:48.941Z,6.90
2023-05-03T01:45:19.389Z,6.85
2023-05-03T01:47:48.990Z,5.35
2023-05-03T01:50:17.788Z,5.75
2023-05-03T01:52:46.729Z,5.65
2023-05-03T01:55:19.258Z,6.15
2023-05-03T01:57:48.769Z,6.57
2023-05-03T02:00:17.404Z,5.65
2023-05-03T02:02:45.819Z,8.45
2023-05-03T02:05:14.455Z,6.45
2023-05-03T02:07:42.824Z,7.15
2023-05-03T02:10:15.078Z,8.02
2023-05-03T02:12:45.771Z,6.95
2023-05-03T02:15:16.025Z,14.55
2023-05-03T02:17:46.115Z,8.70
2023-05-03T02:20:14.551Z,6.70
2023-05-03T02:22:43.934Z,7.05
2023-05-03T02:25:12.826Z,7.00
2023-05-03T02:27:41.385Z,5.88
2023-05-03T02:30:12.247Z,5.80
2023-05-03T02:32:44.625Z,6.78
2023-05-03T02:35:13.114Z,6.45
2023-05-03T02:37:42.042Z,8.38
2023-05-03T02:40:13.947Z,7.50
2023-05-03T02:42:45.540Z,6.22
2023-05-03T02:45:18.226Z,5.75
2023-05-03T02:47:48.144Z,5.80
2023-05-03T02:50:17.290Z,6.40
2023-05-03T02:52:46.773Z,6.70
2023-05-03T02:55:15.645Z,7.22
2023-05-03T02:57:47.466Z,6.40
2023-05-03T03:00:21.608Z,5.82
2023-05-03T03:02:51.371Z,6.72
2023-05-03T03:05:20.072Z,6.70
2023-05-03T03:07:52.654Z,7.38
2023-05-03T03:10:21.196Z,7.70
2023-05-03T03:12:50.435Z,9.95
2023-05-03T03:15:34.450Z,7.22
2023-05-03T03:18:02.985Z,8.50
2023-05-03T03:20:33.203Z,8.18
2023-05-03T03:23:01.639Z,13.05
2023-05-03T03:25:31.109Z,8.45
2023-05-03T03:28:00.798Z,6.28
2023-05-03T03:30:32.204Z,6.15
2023-05-03T03:33:12.386Z,6.03
2023-05-03T03:35:42.976Z,6.10
2023-05-03T03:38:13.254Z,6.75
2023-05-03T03:40:49.928Z,7.18
2023-05-03T03:43:19.023Z,9.73
2023-05-03T03:45:48.407Z,8.23
2023-05-03T03:48:19.740Z,7.55
2023-05-03T03:50:50.218Z,6.03
2023-05-03T03:53:20.697Z,6.00
2023-05-03T03:55:50.355Z,5.85
2023-05-03T03:58:19.753Z,5.65
2023-05-03T04:00:48.922Z,5.50
2023-05-03T04:03:22.223Z,6.60
2023-05-03T04:05:51.584Z,6.78
2023-05-03T04:08:22.401Z,7.05
2023-05-03T04:10:51.698Z,7.00
2023-05-03T04:13:20.944Z,6.78
2023-05-03T04:15:55.763Z,6.40
2023-05-03T04:18:26.843Z,6.15
2023-05-03T04:20:58.223Z,6.60
2023-05-03T04:23:27.788Z,6.65
2023-05-03T04:25:57.812Z,7.53
2023-05-03T04:28:28.027Z,6.40
2023-05-03T04:30:59.072Z,6.50
2023-05-03T04:33:31.436Z,6.47
2023-05-03T04:36:05.080Z,6.30
2023-05-03T04:38:35.267Z,6.82
2023-05-03T04:41:07.093Z,6.88
2023-05-03T04:43:35.775Z,6.25
2023-05-03T04:46:05.369Z,6.28
2023-05-03T04:48:35.919Z,6.13
2023-05-03T04:51:06.093Z,7.20
2023-05-03T04:53:34.695Z,6.72
2023-05-03T04:56:09.786Z,6.18
2023-05-03T04:58:40.751Z,6.40
2023-05-03T05:01:09.538Z,6.97
2023-05-03T05:03:40.695Z,8.02
2023-05-03T05:06:15.400Z,7.75
2023-05-03T05:08:44.902Z,8.52
2023-05-03T05:11:16.012Z,8.68
2023-05-03T05:13:45.261Z,7.13
2023-05-03T05:16:14.141Z,7.63
2023-05-03T05:18:48.586Z,9.32
2023-05-03T05:21:18.256Z,8.60
2023-05-03T05:23:47.623Z,8.23
2023-05-03T05:26:16.353Z,8.93
2023-05-03T05:28:45.652Z,9.00
2023-05-03T05:31:14.641Z,8.98
2023-05-03T05:33:44.562Z,8.88
2023-05-03T05:36:15.425Z,9.93
2023-05-03T05:38:44.719Z,10.55
2023-05-03T05:41:13.158Z,11.80
2023-05-03T05:43:44.067Z,11.90
2023-05-03T05:46:12.535Z,13.20
2023-05-03T05:48:43.435Z,11.18
2023-05-03T05:51:12.736Z,11.73
2023-05-03T05:53:43.368Z,13.30
2023-05-03T05:56:12.398Z,13.52
2023-05-03T05:58:41.672Z,13.77
2023-05-03T06:01:10.750Z,13.55
2023-05-03T06:03:40.756Z,13.73
2023-05-03T06:06:10.406Z,14.77
2023-05-03T06:08:40.366Z,10.18
2023-05-03T06:11:10.137Z,14.27
2023-05-03T06:13:41.266Z,13.00
2023-05-03T06:16:12.563Z,13.00
2023-05-03T06:18:40.988Z,13.43
2023-05-03T06:21:11.780Z,11.40
2023-05-03T06:23:40.684Z,13.48
2023-05-03T06:26:12.193Z,12.90
2023-05-03T06:28:41.094Z,12.63
2023-05-03T06:31:09.931Z,12.85
2023-05-03T06:33:38.845Z,13.75
2023-05-03T06:36:09.742Z,14.60
2023-05-03T06:38:39.086Z,12.75
2023-05-03T06:41:08.224Z,11.10
2023-05-03T06:43:38.013Z,13.15
2023-05-03T06:46:08.367Z,14.85
2023-05-03T06:48:37.101Z,15.68
2023-05-03T06:51:06.501Z,14.07
2023-05-03T06:53:35.724Z,17.25
2023-05-03T06:56:05.394Z,16.15
2023-05-03T06:58:35.600Z,16.25
2023-05-03T07:01:05.382Z,15.68
2023-05-03T07:03:34.340Z,15.90
2023-05-03T07:06:03.000Z,14.52
2023-05-03T07:08:31.359Z,15.10
2023-05-03T07:11:00.824Z,15.50
2023-05-03T07:13:29.609Z,17.20
2023-05-03T07:15:58.423Z,18.35
2023-05-03T07:18:28.810Z,17.88
2023-05-03T07:20:57.289Z,16.77
2023-05-03T07:23:26.805Z,17.83
2023-05-03T07:25:56.053Z,16.42
2023-05-03T07:28:25.132Z,16.95
2023-05-03T07:30:53.791Z,15.57
2023-05-03T07:33:22.900Z,18.83
2023-05-03T07:35:52.726Z,17.83
2023-05-03T07:38:21.834Z,18.50
2023-05-03T07:40:50.399Z,19.63
2023-05-03T07:43:24.184Z,18.48
2023-05-03T07:45:52.577Z,19.48
2023-05-03T07:48:21.853Z,18.40
2023-05-03T07:50:50.235Z,18.33
2023-05-03T07:53:19.924Z,19.90
2023-05-03T07:55:48.293Z,20.20
2023-05-03T07:58:19.601Z,20.15
2023-05-03T08:00:49.796Z,21.67
2023-05-03T08:03:18.733Z,20.80
2023-05-03T08:05:48.595Z,20.27
2023-05-03T08:08:17.312Z,19.48
2023-05-03T08:10:47.744Z,19.17
2023-05-03T08:13:17.216Z,17.17
2023-05-03T08:15:46.034Z,18.05
2023-05-03T08:18:15.004Z,17.13
2023-05-03T08:20:43.858Z,16.45
2023-05-03T08:23:12.279Z,16.35
2023-05-03T08:25:41.104Z,15.45
2023-05-03T08:28:10.861Z,17.33
2023-05-03T08:30:40.098Z,15.85
2023-05-03T08:33:09.915Z,15.30
2023-05-03T08:35:38.771Z,15.60
2023-05-03T08:38:07.508Z,16.20
2023-05-03T08:40:40.371Z,15.50
2023-05-03T08:43:11.523Z,15.15
2023-05-03T08:45:39.930Z,16.05
2023-05-03T08:48:08.569Z,15.73
2023-05-03T08:50:42.318Z,14.00
2023-05-03T08:53:11.753Z,16.40
2023-05-03T08:55:40.372Z,15.02
2023-05-03T08:58:12.809Z,15.25
2023-05-03T09:00:45.013Z,14.98
2023-05-03T09:03:14.487Z,15.48
2023-05-03T09:05:44.321Z,15.50
2023-05-03T09:08:14.564Z,14.30
2023-05-03T09:10:43.816Z,16.38
2023-05-03T09:13:13.516Z,15.15
2023-05-03T09:15:45.293Z,13.70
2023-05-03T09:18:17.271Z,13.07
2023-05-03T09:20:52.035Z,13.88
2023-05-03T09:23:31.324Z,15.30
2023-05-03T09:26:01.138Z,12.68
2023-05-03T09:28:30.895Z,14.23
2023-05-03T09:31:06.931Z,13.13
2023-05-03T09:33:35.585Z,13.02
2023-05-03T09:36:06.448Z,13.45
2023-05-03T09:38:36.665Z,13.63
2023-05-03T09:41:06.939Z,12.63
2023-05-03T09:43:36.823Z,11.95
2023-05-03T09:46:12.952Z,10.98
2023-05-03T09:48:42.039Z,11.27
2023-05-03T09:51:12.331Z,11.50
2023-05-03T09:53:41.994Z,10.88
2023-05-03T09:56:13.371Z,10.00
2023-05-03T09:58:44.962Z,9.70
2023-05-03T10:01:16.243Z,11.75
2023-05-03T10:03:47.542Z,11.20
2023-05-03T10:06:24.278Z,11.00
2023-05-03T10:09:01.207Z,11.13
2023-05-03T10:11:30.266Z,11.35
2023-05-03T10:14:00.520Z,11.82
2023-05-03T10:16:34.589Z,11.07
2023-05-03T10:19:12.190Z,10.73
2023-05-03T10:22:03.774Z,11.48
2023-05-03T10:24:32.749Z,10.57
2023-05-03T10:27:01.887Z,10.43
2023-05-03T10:29:52.431Z,10.75
2023-05-03T10:32:35.617Z,10.32
2023-05-03T10:35:08.133Z,10.65
2023-05-03T10:37:38.040Z,9.77
2023-05-03T10:40:08.346Z,10.13
2023-05-03T10:42:38.449Z,10.30
2023-05-03T10:45:12.960Z,9.23
2023-05-03T10:47:41.893Z,9.43
2023-05-03T10:50:26.815Z,9.82
2023-05-03T10:52:55.727Z,11.48
2023-05-03T10:55:25.801Z,10.10
2023-05-03T10:57:57.737Z,8.75
2023-05-03T11:00:34.767Z,9.88
2023-05-03T11:03:22.057Z,9.05
2023-05-03T11:05:51.031Z,8.85
2023-05-03T11:08:21.542Z,8.80
2023-05-03T11:10:52.043Z,7.53
2023-05-03T11:13:20.440Z,7.00
2023-05-03T11:15:51.084Z,5.65
2023-05-03T11:18:20.125Z,6.90
2023-05-03T11:20:49.081Z,9.68
2023-05-03T11:23:18.169Z,9.38
2023-05-03T11:25:47.310Z,8.55
2023-05-03T11:28:15.836Z,8.05
2023-05-03T11:30:44.602Z,7.47
2023-05-03T11:33:14.540Z,8.60
2023-05-03T11:35:44.475Z,9.35
2023-05-03T11:38:13.363Z,8.98
2023-05-03T11:40:41.824Z,7.57
2023-05-03T11:43:10.578Z,8.52
2023-05-03T11:45:42.966Z,8.82
2023-05-03T11:48:14.593Z,8.68
2023-05-03T11:50:48.166Z,9.35
2023-05-03T11:53:17.554Z,9.10
2023-05-03T11:55:48.193Z,8.60
2023-05-03T11:58:18.643Z,9.00
2023-05-03T12:00:48.628Z,8.20
2023-05-03T12:03:26.806Z,8.15
2023-05-03T12:06:00.033Z,8.20
2023-05-03T12:08:31.087Z,8.25
2023-05-03T12:11:03.264Z,7.35
2023-05-03T12:13:38.301Z,7.70
2023-05-03T12:18:50.864Z,8.70
2023-05-03T12:23:55.854Z,8.43
2023-05-03T12:26:26.612Z,8.05
2023-05-03T12:28:57.118Z,7.90
2023-05-03T12:31:29.093Z,8.27
2023-05-03T12:34:20.044Z,8.38
2023-05-03T12:36:49.090Z,7.60
2023-05-03T12:39:21.593Z,7.07
2023-05-03T12:44:23.666Z,7.60
2023-05-03T12:46:53.475Z,6.85
2023-05-03T12:49:23.905Z,6.88
2023-05-03T12:52:11.329Z,6.53
2023-05-03T12:54:42.318Z,6.60
2023-05-03T12:57:15.510Z,5.82
2023-05-03T12:59:52.156Z,4.85
2023-05-03T13:04:59.464Z,4.90
2023-05-03T13:07:31.702Z,5.38
2023-05-03T13:12:36.305Z,5.63
2023-05-03T13:15:06.556Z,4.68
2023-05-03T13:17:35.308Z,4.53
2023-05-03T13:20:08.224Z,4.25
2023-05-03T13:22:36.598Z,4.60
2023-05-03T13:25:05.709Z,4.50
2023-05-03T13:27:34.888Z,5.28
2023-05-03T13:30:05.083Z,4.70
2023-05-03T13:32:34.226Z,4.65
2023-05-03T13:35:03.217Z,4.60
2023-05-03T13:37:33.075Z,4.78
2023-05-03T13:40:02.116Z,4.65
2023-05-03T13:42:30.605Z,4.57
2023-05-03T13:44:59.709Z,4.63
2023-05-03T13:47:33.060Z,8.48
2023-05-03T13:50:11.862Z,5.47
2023-05-03T13:52:42.036Z,4.15
2023-05-03T13:55:12.227Z,4.88
2023-05-03T13:57:41.011Z,4.88
2023-05-03T14:00:10.535Z,4.65
2023-05-03T14:02:39.577Z,4.85
2023-05-03T14:05:08.666Z,4.28
2023-05-03T14:07:38.097Z,4.88
2023-05-03T14:10:10.044Z,4.13
2023-05-03T14:12:38.891Z,3.97
2023-05-03T14:15:08.868Z,3.78
2023-05-03T14:17:37.259Z,3.72
2023-05-03T14:20:08.359Z,3.17
2023-05-03T14:22:37.401Z,4.05
2023-05-03T14:25:06.607Z,4.18
2023-05-03T14:27:36.860Z,3.80
2023-05-03T14:30:06.423Z,3.60
2023-05-03T14:32:35.843Z,3.97
2023-05-03T14:35:04.360Z,4.40
2023-05-03T14:37:33.795Z,4.00
2023-05-03T14:40:02.428Z,3.70
2023-05-03T14:42:32.471Z,3.75
2023-05-03T14:45:03.188Z,3.47
2023-05-03T14:47:31.802Z,4.03
2023-05-03T14:50:00.193Z,3.97
2023-05-03T14:52:30.162Z,4.63
2023-05-03T14:54:58.549Z,3.88
2023-05-03T14:57:27.527Z,3.88
2023-05-03T14:59:56.289Z,4.38
2023-05-03T15:02:27.650Z,3.88
2023-05-03T15:04:56.085Z,3.40
2023-05-03T15:07:25.491Z,3.55
2023-05-03T15:09:54.255Z,3.58
2023-05-03T15:12:23.063Z,4.30
2023-05-03T15:14:51.534Z,3.88
2023-05-03T15:17:20.065Z,3.90
2023-05-03T15:19:50.937Z,3.22
2023-05-03T15:22:19.518Z,3.45
2023-05-03T15:24:48.370Z,3.20
2023-05-03T15:27:18.090Z,3.58
2023-05-03T15:29:46.623Z,3.13
2023-05-03T15:32:15.960Z,3.60
2023-05-03T15:34:44.303Z,3.10
2023-05-03T15:37:14.521Z,3.10
2023-05-03T15:39:42.936Z,4.47
2023-05-03T15:42:11.301Z,3.47
2023-05-03T15:44:39.673Z,3.78
2023-05-03T15:47:08.816Z,3.58
2023-05-03T15:49:37.304Z,2.88
2023-05-03T15:52:08.892Z,3.47
2023-05-03T15:54:39.008Z,3.80
2023-05-03T15:57:07.890Z,3.08
2023-05-03T15:59:36.824Z,3.00
2023-05-03T16:02:05.875Z,3.63
2023-05-03T16:04:37.521Z,3.40
2023-05-03T16:07:06.451Z,2.90
2023-05-03T16:09:35.513Z,2.85
2023-05-03T16:12:05.693Z,3.03
2023-05-03T16:14:34.704Z,3.05
2023-05-03T16:17:03.264Z,3.50
2023-05-03T16:19:32.060Z,3.55
2023-05-03T16:22:00.746Z,3.25
2023-05-03T16:24:29.396Z,2.83
2023-05-03T16:26:58.116Z,2.88
2023-05-03T16:29:29.804Z,3.30
2023-05-03T16:31:59.112Z,3.17
2023-05-03T16:34:27.840Z,3.83
2023-05-03T16:36:56.204Z,3.05
2023-05-03T16:39:25.286Z,3.33
2023-05-03T16:41:53.713Z,3.20
2023-05-03T16:44:22.095Z,3.47
2023-05-03T16:46:53.589Z,2.88
2023-05-03T16:49:22.622Z,3.05
2023-05-03T16:51:51.034Z,3.15
2023-05-03T16:54:21.503Z,3.08
2023-05-03T16:56:50.076Z,3.45
2023-05-03T16:59:20.129Z,3.03
2023-05-03T17:01:48.545Z,3.00
2023-05-03T17:04:18.490Z,3.28
2023-05-03T17:06:47.248Z,3.60
2023-05-03T17:09:15.617Z,3.65
2023-05-03T17:11:43.950Z,3.65
2023-05-03T17:14:12.629Z,3.35
2023-05-03T17:16:41.907Z,3.80
2023-05-03T17:19:10.621Z,3.60
2023-05-03T17:21:41.686Z,3.80
2023-05-03T17:24:10.890Z,3.53
2023-05-03T17:26:40.650Z,3.47
2023-05-03T17:29:09.028Z,3.47
2023-05-03T17:31:38.296Z,4.57
2023-05-03T17:34:06.884Z,3.95
2023-05-03T17:36:36.189Z,4.20
2023-05-03T17:39:06.029Z,4.78
2023-05-03T17:41:37.488Z,4.93
2023-05-03T17:44:05.996Z,5.07
2023-05-03T17:46:35.565Z,4.75
2023-05-03T17:49:04.634Z,5.63
2023-05-03T17:51:33.138Z,5.00
2023-05-03T17:54:03.069Z,5.60
2023-05-03T17:56:32.857Z,5.70
2023-05-03T17:59:02.366Z,5.80
2023-05-03T18:01:30.761Z,6.55
2023-05-03T18:04:01.005Z,6.15
2023-05-03T18:06:29.951Z,5.97
2023-05-03T18:08:58.971Z,6.75
2023-05-03T18:11:27.397Z,6.88
2023-05-03T18:14:16.801Z,6.70
2023-05-03T18:16:45.560Z,7.15
2023-05-03T18:19:14.748Z,6.50
2023-05-03T18:21:43.132Z,6.95
2023-05-03T18:24:16.058Z,5.82
2023-05-03T18:26:44.517Z,7.22
2023-05-03T18:29:12.869Z,6.75
2023-05-03T18:31:44.716Z,6.88
2023-05-03T18:34:13.303Z,6.70
2023-05-03T18:36:42.217Z,6.40
2023-05-03T18:39:10.965Z,6.45
2023-05-03T18:41:41.140Z,7.18
2023-05-03T18:44:09.888Z,6.32
2023-05-03T18:46:40.178Z,6.85
2023-05-03T18:49:11.961Z,6.47
2023-05-03T18:51:40.429Z,6.20
2023-05-03T18:54:13.028Z,6.25
2023-05-03T18:56:41.831Z,6.75
2023-05-03T18:59:11.125Z,7.03
2023-05-03T19:01:39.927Z,7.90
2023-05-03T19:04:08.347Z,7.32
2023-05-03T19:06:38.137Z,7.40
2023-05-03T19:09:06.834Z,7.32
2023-05-03T19:11:36.000Z,6.85
2023-05-03T19:14:05.084Z,6.05
2023-05-03T19:16:34.178Z,6.35
2023-05-03T19:19:02.790Z,6.80
2023-05-03T19:21:32.141Z,5.80
2023-05-03T19:24:02.593Z,5.85
2023-05-03T19:26:31.506Z,6.10
2023-05-03T19:29:00.054Z,6.15
2023-05-03T19:31:28.889Z,5.93
2023-05-03T19:33:57.325Z,6.25
2023-05-03T19:36:25.782Z,6.13
2023-05-03T19:38:54.625Z,5.70
2023-05-03T19:41:25.234Z,6.55
2023-05-03T19:43:55.651Z,6.55
2023-05-03T19:46:24.523Z,7.03
2023-05-03T19:48:53.489Z,6.28
2023-05-03T19:51:22.140Z,6.07
2023-05-03T19:53:51.638Z,5.40
2023-05-03T19:56:21.704Z,6.20
2023-05-03T19:58:51.895Z,5.88
2023-05-03T20:01:20.453Z,6.28
2023-05-03T20:03:49.009Z,5.85
2023-05-03T20:06:17.460Z,6.03
2023-05-03T20:08:45.848Z,6.10
2023-05-03T20:11:14.678Z,5.93
2023-05-03T20:13:43.166Z,5.93
2023-05-03T20:16:13.175Z,6.30
2023-05-03T20:18:42.772Z,9.05
2023-05-03T20:21:11.103Z,7.60
2023-05-03T20:23:39.563Z,6.30
2023-05-03T20:26:08.022Z,6.18
2023-05-03T20:28:36.542Z,6.38
2023-05-03T20:31:05.554Z,8.75
2023-05-03T20:33:35.284Z,14.95
2023-05-03T20:36:03.904Z,14.82
2023-05-03T20:38:32.782Z,15.63
2023-05-03T20:41:01.174Z,16.67
2023-05-03T20:43:30.060Z,13.23
2023-05-03T20:45:59.130Z,11.00
2023-05-03T20:48:27.794Z,11.13
2023-05-03T20:50:58.865Z,12.80
2023-05-03T20:53:27.328Z,10.32
2023-05-03T20:56:00.907Z,10.73
2023-05-03T20:58:29.353Z,9.50
2023-05-03T21:00:58.079Z,9.23
2023-05-03T21:03:26.800Z,9.30
2023-05-03T21:05:56.446Z,11.35
2023-05-03T21:08:26.378Z,10.73
2023-05-03T21:10:55.420Z,8.27
2023-05-03T21:13:23.772Z,8.30
2023-05-03T21:15:52.581Z,8.38
2023-05-03T21:18:20.969Z,7.82
2023-05-03T21:20:49.364Z,9.20
2023-05-03T21:23:17.723Z,8.77
2023-05-03T21:25:48.220Z,7.88
2023-05-03T21:28:16.779Z,8.10
2023-05-03T21:30:48.338Z,8.48
2023-05-03T21:33:16.952Z,8.50
2023-05-03T21:35:45.334Z,7.68
2023-05-03T21:38:15.331Z,8.10
2023-05-03T21:40:44.209Z,7.82
2023-05-03T21:43:13.957Z,8.02
2023-05-03T21:45:44.126Z,7.88
2023-05-03T21:48:12.698Z,8.88
2023-05-03T21:50:41.304Z,9.00
2023-05-03T21:53:10.159Z,8.30
2023-05-03T21:55:39.256Z,8.20
2023-05-03T21:58:08.092Z,8.70
2023-05-03T22:00:39.923Z,7.47
2023-05-03T22:03:08.898Z,8.48
2023-05-03T22:05:39.291Z,7.80
2023-05-03T22:08:08.058Z,8.20
2023-05-03T22:10:38.353Z,8.38
2023-05-03T22:13:06.755Z,8.60
2023-05-03T22:15:37.373Z,8.35
2023-05-03T22:18:05.942Z,7.97
2023-05-03T22:20:34.315Z,8.07
2023-05-03T22:23:04.575Z,7.65
2023-05-03T22:25:33.184Z,8.25
2023-05-03T22:28:02.112Z,8.45
2023-05-03T22:30:31.418Z,8.13
2023-05-03T22:33:02.629Z,8.07
2023-05-03T22:35:31.576Z,8.40
2023-05-03T22:38:00.699Z,7.78
2023-05-03T22:40:29.021Z,7.30
2023-05-03T22:42:58.572Z,8.68
2023-05-03T22:45:27.001Z,8.32
2023-05-03T22:47:56.092Z,8.35
2023-05-03T22:50:26.130Z,8.68
2023-05-03T22:52:55.852Z,7.70
2023-05-03T22:55:24.579Z,8.38
2023-05-03T22:57:53.405Z,8.38
2023-05-03T23:00:22.395Z,9.38
2023-05-03T23:02:51.885Z,9.05
2023-05-03T23:05:20.657Z,8.20
2023-05-03T23:07:51.153Z,7.97
2023-05-03T23:10:19.505Z,8.60
2023-05-03T23:12:48.765Z,9.20
2023-05-03T23:15:18.022Z,8.85
2023-05-03T23:17:46.519Z,8.25
2023-05-03T23:20:16.043Z,7.78
2023-05-03T23:22:44.514Z,8.27
2023-05-03T23:25:16.809Z,8.25
2023-05-03T23:27:45.211Z,8.23
2023-05-03T23:30:15.597Z,8.02
2023-05-03T23:32:44.965Z,8.77
2023-05-03T23:35:15.038Z,9.05
2023-05-03T23:37:44.198Z,8.60
2023-05-03T23:40:14.239Z,8.57
2023-05-03T23:42:43.859Z,8.23
2023-05-03T23:45:12.783Z,7.97
2023-05-03T23:47:42.005Z,8.23
2023-05-03T23:50:11.308Z,8.38
2023-05-03T23:52:40.219Z,8.73
2023-05-03T23:55:09.780Z,8.23
2023-05-03T23:57:39.511Z,7.95
